Accueil
METAR-TAF:

METAR-TAF

Aéroports :

Umiujaq, Québec, Canada

latitude: 56-32N, longitude: 076-31W, altitude: 71 m

Observation

Le bulletin a été fait il y a 9 heures et 40 minutes, à 21:00 UTC
Vent 17 kt de ouest/sud-ouest
Température -25°C
Humidité 76%
Pression 1006 hPa
Visibilité: 8.0 km
Nuages épars à une hauteur de 1600 ft
Nuages fragmentés à une hauteur de 4500 ft
Nuages fragmentés à une hauteur de 22000 ft
cristaux de glace, Chasse-neige basse

METAR: CYMU 162100Z 24017KT 5SM IC DRSN SCT016 BKN045 BKN220 M25/M28 A2972 RMK ST3SC2CI2 SLP077

Heure: 01:40 (06:40 UTC)


TAF: absent

Observations et prévisions météorologiques de plus de 4000 aéroports (messages METAR et TAF).

Les stations disponibles sont représentées par des disques jaunes et rouges sur la carte.

Passer la souris dessus pour voir le nom de la station.

Cliquer dessus pour voir les observations et prévisions météorologiques.

Pour changer de carte: cliquez sur les boutons verts avec une croix noire pour zoomer, sur le bouton vert avec un tiret pour effectuer un zoom arrière, ou sur les flèches vertes pour les cartes adjacentes.


METAR-TAF: